| time (UTC) | temp C | wind direction | speed KPH | gust KPH | rain 1hr cm | rain 24hr cm | rain mn cm | humidity % | barometer mb |
| 20260507070025 | 7 | 43 | 14.5 | 30.6 | 0.00 | 0.00 | 0.05 | 90 | 1012.7 |
| 20260507065019 | 7 | 44 | 14.5 | 29.0 | 0.00 | 0.00 | 0.05 | 89 | 1012.7 |
| 20260507064016 | 7 | 34 | 12.9 | 27.4 | 0.00 | 0.00 | 0.05 | 90 | 1012.7 |
| 20260507063019 | 7 | 39 | 12.9 | 27.4 | 0.00 | 0.00 | 0.05 | 90 | 1012.7 |
| 20260507062017 | 7 | 36 | 14.5 | 29.0 | 0.00 | 0.00 | 0.05 | 91 | 1012.7 |
| 20260507061028 | 7 | 44 | 14.5 | 22.5 | 0.00 | 0.00 | 0.05 | 91 | 1012.3 |
| 20260507060017 | 7 | 46 | 14.5 | 22.5 | 0.00 | 0.00 | 0.05 | 91 | 1012.3 |
| 20260507054018 | 7 | 52 | 14.5 | 24.1 | 0.00 | 0.00 | 0.05 | 92 | 1012.3 |
| 20260507053023 | 7 | 53 | 14.5 | 22.5 | 0.00 | 0.00 | 0.05 | 92 | 1012.3 |
| 20260507051025 | 7 | 36 | 12.9 | 17.7 | 0.00 | 0.00 | 0.05 | 93 | 1011.8 |
| 20260507050024 | 7 | 28 | 12.9 | 19.3 | 0.00 | 0.00 | 0.05 | 93 | 1011.8 |
| 20260507045024 | 7 | 24 | 12.9 | 19.3 | 0.00 | 0.00 | 0.05 | 93 | 1011.8 |
| 20260507044028 | 7 | 28 | 12.9 | 17.7 | 0.00 | 0.00 | 0.05 | 93 | 1011.8 |
| 20260507042030 | 7 | 26 | 12.9 | 17.7 | 0.00 | 0.00 | 0.05 | 93 | 1011.8 |
| 20260507041029 | 7 | 14 | 8.0 | 17.7 | 0.03 | 0.00 | 0.05 | 93 | 1011.5 |
| 20260507040020 | 6 | 18 | 9.7 | 19.3 | 0.05 | 0.00 | 0.05 | 93 | 1011.5 |
| 20260507035018 | 6 | 20 | 9.7 | 19.3 | 0.05 | 0.00 | 0.05 | 93 | 1011.5 |
| 20260507034026 | 7 | 24 | 8.0 | 17.7 | 0.05 | 0.00 | 0.05 | 93 | 1011.5 |
| 20260507033015 | 7 | 17 | 8.0 | 17.7 | 0.05 | 0.00 | 0.05 | 93 | 1011.5 |
| 20260507032025 | 7 | 17 | 8.0 | 17.7 | 0.05 | 0.00 | 0.05 | 93 | 1011.5 |
| 20260507031022 | 7 | 40 | 9.7 | 19.3 | 0.03 | 0.00 | 0.03 | 93 | 1011.2 |
| 20260507025027 | 7 | 34 | 9.7 | 19.3 | 0.00 | 0.00 | 0.00 | 93 | 1011.2 |
| 20260507024013 | 7 | 42 | 9.7 | 19.3 | 0.00 | 0.00 | 0.00 | 93 | 1011.2 |
| 20260507023027 | 7 | 46 | 11.3 | 20.9 | 0.00 | 0.00 | 0.00 | 93 | 1011.2 |
| 20260507022027 | 7 | 43 | 9.7 | 19.3 | 0.00 | 0.00 | 0.00 | 93 | 1011.2 |
| 20260507021014 | 7 | 46 | 11.3 | 20.9 | 0.00 | 0.00 | 0.00 | 93 | 1010.6 |
| 20260507015022 | 7 | 41 | 12.9 | 22.5 | 0.00 | 0.00 | 0.00 | 93 | 1010.6 |
| 20260507014013 | 7 | 40 | 12.9 | 22.5 | 0.00 | 0.00 | 0.00 | 92 | 1010.6 |
| 20260507013028 | 7 | 43 | 12.9 | 20.9 | 0.00 | 0.00 | 0.00 | 92 | 1010.6 |
| 20260507012017 | 7 | 34 | 12.9 | 22.5 | 0.00 | 0.00 | 0.00 | 92 | 1010.6 |
| 20260507011021 | 7 | 33 | 12.9 | 22.5 | 0.00 | 0.00 | 0.00 | 92 | 1010.7 |
| 20260507005021 | 7 | 32 | 12.9 | 22.5 | 0.00 | 0.00 | 0.00 | 92 | 1010.7 |
| 20260507004016 | 7 | 27 | 12.9 | 20.9 | 0.00 | 0.00 | 0.00 | 93 | 1010.7 |
| 20260507003024 | 6 | 35 | 12.9 | 22.5 | 0.00 | 0.00 | 0.00 | 92 | 1010.7 |
| 20260507002021 | 7 | 28 | 12.9 | 22.5 | 0.00 | 0.00 | 0.00 | 92 | 1010.7 |
| 20260507001015 | 6 | 36 | 14.5 | 27.4 | 0.00 | 0.00 | 0.00 | 92 | 1010.4 |
| 20260506233032 | 7 | 28 | 14.5 | 25.7 | 0.00 | 0.00 | 1.80 | 93 | 1010.4 |
| 20260506232031 | 7 | 32 | 16.1 | 29.0 | 0.00 | 0.00 | 1.80 | 93 | 1010.4 |
| 20260506231018 | 7 | 35 | 14.5 | 32.2 | 0.00 | 0.00 | 1.80 | 92 | 1010.3 |
| 20260506225021 | 7 | 30 | 14.5 | 30.6 | 0.00 | 0.00 | 1.80 | 92 | 1010.3 |
| 20260506223026 | 7 | 32 | 17.7 | 32.2 | 0.00 | 0.00 | 1.80 | 92 | 1010.0 |
| 20260506222028 | 7 | 30 | 17.7 | 29.0 | 0.00 | 0.00 | 1.80 | 92 | 1010.0 |
| 20260506221026 | 7 | 27 | 17.7 | 30.6 | 0.00 | 0.00 | 1.80 | 93 | 1010.0 |
| 20260506220028 | 7 | 27 | 17.7 | 30.6 | 0.00 | 0.00 | 1.80 | 93 | 1010.0 |
| 20260506215028 | 7 | 28 | 17.7 | 30.6 | 0.00 | 0.00 | 1.80 | 93 | 1010.0 |
| 20260506214025 | 7 | 33 | 17.7 | 32.2 | 0.00 | 0.00 | 1.80 | 92 | 1010.0 |
| 20260506213029 | 8 | 24 | 17.7 | 29.0 | 0.00 | 0.00 | 1.80 | 92 | 1010.0 |
| 20260506211018 | 8 | 19 | 17.7 | 30.6 | 0.00 | 0.00 | 1.80 | 92 | 1009.1 |
| 20260506205018 | 9 | 18 | 17.7 | 30.6 | 0.00 | 0.00 | 1.80 | 93 | 1009.1 |
| 20260506204025 | 10 | 22 | 16.1 | 27.4 | 0.00 | 0.00 | 1.80 | 93 | 1009.1 |
| 20260506203025 | 10 | 26 | 16.1 | 27.4 | 0.00 | 0.00 | 1.80 | 94 | 1009.1 |
| 20260506202028 | 10 | 19 | 17.7 | 30.6 | 0.00 | 0.00 | 1.80 | 94 | 1009.1 |
| 20260506201016 | 10 | 6 | 12.9 | 22.5 | 0.00 | 0.00 | 1.80 | 94 | 1008.7 |
| 20260506200035 | 10 | 12 | 12.9 | 22.5 | 0.00 | 0.00 | 1.80 | 94 | 1008.7 |
| 20260506195024 | 10 | 15 | 12.9 | 22.5 | 0.00 | 0.00 | 1.80 | 94 | 1008.7 |
| 20260506194030 | 10 | 15 | 12.9 | 22.5 | 0.00 | 0.00 | 1.80 | 94 | 1008.7 |
| 20260506193025 | 10 | 6 | 12.9 | 20.9 | 0.00 | 0.00 | 1.80 | 94 | 1008.7 |
| 20260506185019 | 10 | 19 | 12.9 | 22.5 | 0.00 | 0.00 | 1.80 | 93 | 1008.2 |
| 20260506183029 | 10 | 14 | 12.9 | 20.9 | 0.00 | 0.00 | 1.80 | 93 | 1008.2 |
| 20260506182027 | 10 | 18 | 12.9 | 20.9 | 0.00 | 0.00 | 1.80 | 93 | 1008.2 |
| 20260506181027 | 10 | 27 | 11.3 | 19.3 | 0.00 | 0.00 | 1.80 | 93 | 1008.0 |
| 20260506175020 | 10 | 26 | 11.3 | 19.3 | 0.00 | 0.00 | 1.80 | 93 | 1008.0 |
| 20260506174016 | 10 | 35 | 11.3 | 20.9 | 0.00 | 0.00 | 1.80 | 93 | 1008.0 |
| 20260506173029 | 11 | 24 | 11.3 | 19.3 | 0.00 | 0.00 | 1.80 | 93 | 1008.0 |
| 20260506172023 | 11 | 28 | 11.3 | 20.9 | 0.00 | 0.00 | 1.80 | 93 | 1008.0 |
| 20260506171027 | 11 | 12 | 9.7 | 19.3 | 0.00 | 0.00 | 1.80 | 93 | 1007.8 |
| 20260506165021 | 11 | 15 | 9.7 | 20.9 | 0.00 | 0.00 | 1.80 | 93 | 1007.8 |
| 20260506164020 | 11 | 4 | 9.7 | 20.9 | 0.00 | 0.00 | 1.80 | 94 | 1007.8 |
| 20260506163023 | 11 | 14 | 9.7 | 19.3 | 0.00 | 0.00 | 1.80 | 94 | 1007.8 |
| 20260506162030 | 11 | 12 | 9.7 | 20.9 | 0.00 | 0.00 | 1.80 | 94 | 1007.8 |
| 20260506161024 | 11 | 11 | 11.3 | 24.1 | 0.00 | 0.00 | 1.80 | 94 | 1008.0 |
| 20260506155029 | 11 | 7 | 11.3 | 25.7 | 0.00 | 0.00 | 1.80 | 94 | 1008.0 |
| 20260506154029 | 11 | 12 | 11.3 | 25.7 | 0.00 | 0.00 | 1.80 | 94 | 1008.0 |
| 20260506153027 | 11 | 16 | 11.3 | 25.7 | 0.00 | 0.00 | 1.80 | 94 | 1008.0 |
| 20260506152028 | 11 | 14 | 11.3 | 25.7 | 0.00 | 0.00 | 1.80 | 94 | 1008.0 |
| 20260506151016 | 11 | 358 | 9.7 | 22.5 | 0.00 | 0.00 | 1.80 | 93 | 1007.8 |
| 20260506145025 | 11 | 6 | 9.7 | 22.5 | 0.00 | 0.00 | 1.80 | 95 | 1007.8 |
| 20260506144028 | 11 | 354 | 9.7 | 22.5 | 0.00 | 0.00 | 1.80 | 95 | 1007.8 |
| 20260506143025 | 11 | 2 | 9.7 | 22.5 | 0.00 | 0.00 | 1.80 | 95 | 1007.8 |
| 20260506142028 | 11 | 359 | 9.7 | 22.5 | 0.00 | 0.00 | 1.80 | 95 | 1007.8 |
| 20260506135026 | 11 | 25 | 9.7 | 24.1 | 0.00 | 0.00 | 1.80 | 94 | 1007.5 |
| 20260506133030 | 12 | 24 | 9.7 | 24.1 | 0.00 | 0.00 | 1.80 | 95 | 1007.5 |
| 20260506132022 | 11 | 30 | 9.7 | 22.5 | 0.03 | 0.00 | 1.80 | 96 | 1007.5 |
| 20260506131025 | 11 | 17 | 14.5 | 22.5 | 0.03 | 0.00 | 1.80 | 96 | 1007.0 |
| 20260506125019 | 10 | 16 | 14.5 | 24.1 | 0.05 | 0.00 | 1.80 | 96 | 1007.0 |
| 20260506124016 | 11 | 16 | 14.5 | 22.5 | 0.05 | 0.00 | 1.80 | 97 | 1007.0 |
| 20260506123019 | 10 | 20 | 14.5 | 22.5 | 0.08 | 0.00 | 1.80 | 96 | 1007.0 |
| 20260506122026 | 10 | 15 | 12.9 | 22.5 | 0.05 | 0.00 | 1.78 | 97 | 1007.0 |
| 20260506121022 | 10 | 26 | 12.9 | 24.1 | 0.05 | 0.00 | 1.78 | 97 | 1006.5 |
| 20260506115014 | 10 | 25 | 12.9 | 25.7 | 0.08 | 0.00 | 1.75 | 97 | 1006.5 |
| 20260506114024 | 10 | 23 | 12.9 | 25.7 | 0.08 | 0.00 | 1.75 | 96 | 1006.5 |
| 20260506113030 | 10 | 19 | 12.9 | 25.7 | 0.08 | 0.00 | 1.73 | 96 | 1006.5 |
| 20260506112015 | 10 | 16 | 12.9 | 24.1 | 0.10 | 0.00 | 1.73 | 96 | 1006.5 |
| 20260506111029 | 10 | 20 | 14.5 | 22.5 | 0.08 | 0.00 | 1.73 | 96 | 1006.0 |
| 20260506104030 | 11 | 17 | 14.5 | 22.5 | 0.08 | 0.00 | 1.65 | 96 | 1006.0 |
| 20260506103021 | 11 | 39 | 14.5 | 25.7 | 0.08 | 0.00 | 1.65 | 97 | 1005.9 |
| 20260506102028 | 10 | 36 | 14.5 | 24.1 | 0.08 | 0.00 | 1.63 | 97 | 1005.9 |
| 20260506100021 | 10 | 44 | 14.5 | 24.1 | 0.08 | 0.00 | 1.60 | 97 | 1005.9 |
| 20260506095022 | 10 | 42 | 12.9 | 24.1 | 0.08 | 0.00 | 1.60 | 97 | 1005.9 |
| 20260506094023 | 10 | 34 | 14.5 | 25.7 | 0.10 | 0.00 | 1.57 | 96 | 1005.9 |
| 20260506093025 | 10 | 42 | 14.5 | 24.1 | 0.10 | 0.00 | 1.57 | 97 | 1005.9 |
| 20260506092021 | 11 | 40 | 14.5 | 24.1 | 0.13 | 0.00 | 1.57 | 97 | 1005.9 |
| 20260506091025 | 11 | 44 | 12.9 | 22.5 | 0.13 | 0.00 | 1.55 | 97 | 1005.7 |
| 20260506085027 | 10 | 46 | 12.9 | 22.5 | 0.13 | 0.00 | 1.50 | 97 | 1005.7 |
| 20260506083029 | 10 | 41 | 12.9 | 22.5 | 0.13 | 0.00 | 1.47 | 97 | 1005.7 |
| 20260506082018 | 11 | 34 | 12.9 | 22.5 | 0.13 | 0.00 | 1.45 | 97 | 1005.7 |
| 20260506081016 | 10 | 35 | 12.9 | 24.1 | 0.15 | 0.00 | 1.45 | 97 | 1005.7 |
| 20260506073026 | 10 | 29 | 11.3 | 22.5 | 0.23 | 0.00 | 1.35 | 97 | 1005.7 |
| 20260506072015 | 10 | 34 | 12.9 | 22.5 | 0.23 | 0.00 | 1.32 | 97 | 1005.7 |
| 20260506071024 | 10 | 29 | 16.1 | 25.7 | 0.25 | 0.00 | 1.27 | 97 | 1005.7 |